sensor_id;sensor_type;location;lat;lon;timestamp;temperature;humidity
73141;SHT31;61339;50.558;4.696;2023-07-29T00:00:36;19.21;93.04
73141;SHT31;61339;50.558;4.696;2023-07-29T00:03:01;19.19;92.99
73141;SHT31;61339;50.558;4.696;2023-07-29T00:05:27;19.17;92.96
73141;SHT31;61339;50.558;4.696;2023-07-29T00:07:52;19.14;93.19
73141;SHT31;61339;50.558;4.696;2023-07-29T00:10:17;19.10;93.52
73141;SHT31;61339;50.558;4.696;2023-07-29T00:12:43;19.10;93.55
73141;SHT31;61339;50.558;4.696;2023-07-29T00:15:08;19.07;93.77
73141;SHT31;61339;50.558;4.696;2023-07-29T00:17:34;19.03;93.86
73141;SHT31;61339;50.558;4.696;2023-07-29T00:19:59;19.00;93.96
73141;SHT31;61339;50.558;4.696;2023-07-29T00:22:25;18.97;94.11
73141;SHT31;61339;50.558;4.696;2023-07-29T00:24:53;18.94;93.89
73141;SHT31;61339;50.558;4.696;2023-07-29T00:27:23;18.84;93.98
73141;SHT31;61339;50.558;4.696;2023-07-29T00:29:48;18.76;93.67
73141;SHT31;61339;50.558;4.696;2023-07-29T00:32:14;18.73;93.58
73141;SHT31;61339;50.558;4.696;2023-07-29T00:34:39;18.66;93.61
73141;SHT31;61339;50.558;4.696;2023-07-29T00:37:05;18.60;93.28
73141;SHT31;61339;50.558;4.696;2023-07-29T00:39:34;18.50;93.57
73141;SHT31;61339;50.558;4.696;2023-07-29T00:41:59;18.45;93.74
73141;SHT31;61339;50.558;4.696;2023-07-29T00:44:24;18.39;94.04
73141;SHT31;61339;50.558;4.696;2023-07-29T00:46:53;18.35;94.15
73141;SHT31;61339;50.558;4.696;2023-07-29T00:49:20;18.30;94.36
73141;SHT31;61339;50.558;4.696;2023-07-29T00:51:46;18.29;94.53
73141;SHT31;61339;50.558;4.696;2023-07-29T00:54:11;18.25;94.60
73141;SHT31;61339;50.558;4.696;2023-07-29T00:56:37;18.24;94.72
73141;SHT31;61339;50.558;4.696;2023-07-29T00:59:03;18.21;94.60
73141;SHT31;61339;50.558;4.696;2023-07-29T01:01:29;18.21;94.64
73141;SHT31;61339;50.558;4.696;2023-07-29T01:03:55;18.18;94.60
73141;SHT31;61339;50.558;4.696;2023-07-29T01:09:09;18.12;94.26
73141;SHT31;61339;50.558;4.696;2023-07-29T01:11:51;18.09;94.15
73141;SHT31;61339;50.558;4.696;2023-07-29T01:16:58;18.02;93.80
73141;SHT31;61339;50.558;4.696;2023-07-29T01:21:51;17.99;93.62
73141;SHT31;61339;50.558;4.696;2023-07-29T01:24:16;17.97;93.34
73141;SHT31;61339;50.558;4.696;2023-07-29T01:26:42;17.94;93.29
73141;SHT31;61339;50.558;4.696;2023-07-29T01:29:07;17.94;93.27
73141;SHT31;61339;50.558;4.696;2023-07-29T01:31:34;17.95;92.89
73141;SHT31;61339;50.558;4.696;2023-07-29T01:34:10;17.89;92.10
73141;SHT31;61339;50.558;4.696;2023-07-29T01:36:37;17.88;92.07
73141;SHT31;61339;50.558;4.696;2023-07-29T01:39:05;17.87;91.98
73141;SHT31;61339;50.558;4.696;2023-07-29T01:41:32;17.87;91.47
73141;SHT31;61339;50.558;4.696;2023-07-29T01:43:58;17.84;91.47
73141;SHT31;61339;50.558;4.696;2023-07-29T01:46:25;17.82;91.73
73141;SHT31;61339;50.558;4.696;2023-07-29T01:48:50;17.87;91.27
73141;SHT31;61339;50.558;4.696;2023-07-29T01:51:16;17.82;91.49
73141;SHT31;61339;50.558;4.696;2023-07-29T01:53:41;17.79;91.46
73141;SHT31;61339;50.558;4.696;2023-07-29T01:56:07;17.79;91.42
73141;SHT31;61339;50.558;4.696;2023-07-29T01:58:32;17.78;91.12
73141;SHT31;61339;50.558;4.696;2023-07-29T02:00:58;17.74;90.81
73141;SHT31;61339;50.558;4.696;2023-07-29T02:03:23;17.71;91.08
73141;SHT31;61339;50.558;4.696;2023-07-29T02:05:48;17.67;90.97
73141;SHT31;61339;50.558;4.696;2023-07-29T02:08:14;17.63;91.20
73141;SHT31;61339;50.558;4.696;2023-07-29T02:10:39;17.60;91.08
73141;SHT31;61339;50.558;4.696;2023-07-29T02:13:05;17.58;90.99
73141;SHT31;61339;50.558;4.696;2023-07-29T02:15:30;17.55;90.70
73141;SHT31;61339;50.558;4.696;2023-07-29T02:17:56;17.48;91.06
73141;SHT31;61339;50.558;4.696;2023-07-29T02:20:21;17.50;90.77
73141;SHT31;61339;50.558;4.696;2023-07-29T02:22:46;17.44;90.98
73141;SHT31;61339;50.558;4.696;2023-07-29T02:25:14;17.41;90.89
73141;SHT31;61339;50.558;4.696;2023-07-29T02:27:39;17.40;90.88
73141;SHT31;61339;50.558;4.696;2023-07-29T02:30:05;17.37;90.81
73141;SHT31;61339;50.558;4.696;2023-07-29T02:32:31;17.36;90.81
73141;SHT31;61339;50.558;4.696;2023-07-29T02:34:56;17.34;90.66
73141;SHT31;61339;50.558;4.696;2023-07-29T02:37:21;17.31;90.69
73141;SHT31;61339;50.558;4.696;2023-07-29T02:39:47;17.27;91.07
73141;SHT31;61339;50.558;4.696;2023-07-29T02:42:12;17.27;91.26
73141;SHT31;61339;50.558;4.696;2023-07-29T02:44:39;17.24;91.26
73141;SHT31;61339;50.558;4.696;2023-07-29T02:47:05;17.29;91.17
73141;SHT31;61339;50.558;4.696;2023-07-29T02:49:30;17.30;91.07
73141;SHT31;61339;50.558;4.696;2023-07-29T02:51:55;17.31;90.97
73141;SHT31;61339;50.558;4.696;2023-07-29T02:54:21;17.37;90.96
73141;SHT31;61339;50.558;4.696;2023-07-29T02:56:46;17.40;90.75
73141;SHT31;61339;50.558;4.696;2023-07-29T02:59:12;17.39;90.67
73141;SHT31;61339;50.558;4.696;2023-07-29T03:01:37;17.40;90.58
73141;SHT31;61339;50.558;4.696;2023-07-29T03:04:03;17.39;90.65
73141;SHT31;61339;50.558;4.696;2023-07-29T03:06:28;17.40;90.58
73141;SHT31;61339;50.558;4.696;2023-07-29T03:08:54;17.36;90.67
73141;SHT31;61339;50.558;4.696;2023-07-29T03:11:19;17.29;90.70
73141;SHT31;61339;50.558;4.696;2023-07-29T03:13:45;17.27;90.79
73141;SHT31;61339;50.558;4.696;2023-07-29T03:16:15;17.22;90.92
73141;SHT31;61339;50.558;4.696;2023-07-29T03:18:42;17.22;90.75
73141;SHT31;61339;50.558;4.696;2023-07-29T03:21:09;17.20;90.63
73141;SHT31;61339;50.558;4.696;2023-07-29T03:23:35;17.16;90.52
73141;SHT31;61339;50.558;4.696;2023-07-29T03:26:02;17.13;90.68
73141;SHT31;61339;50.558;4.696;2023-07-29T03:28:36;17.08;90.75
73141;SHT31;61339;50.558;4.696;2023-07-29T03:31:02;17.05;91.10
73141;SHT31;61339;50.558;4.696;2023-07-29T03:33:28;17.05;90.97
73141;SHT31;61339;50.558;4.696;2023-07-29T03:35:54;17.05;90.81
73141;SHT31;61339;50.558;4.696;2023-07-29T03:38:19;16.98;91.05
73141;SHT31;61339;50.558;4.696;2023-07-29T03:40:45;16.95;91.25
73141;SHT31;61339;50.558;4.696;2023-07-29T03:43:10;16.95;91.33
73141;SHT31;61339;50.558;4.696;2023-07-29T03:45:36;16.93;91.22
73141;SHT31;61339;50.558;4.696;2023-07-29T03:48:03;16.93;91.15
73141;SHT31;61339;50.558;4.696;2023-07-29T03:50:29;16.90;91.13
73141;SHT31;61339;50.558;4.696;2023-07-29T03:52:55;16.93;91.27
73141;SHT31;61339;50.558;4.696;2023-07-29T03:55:21;16.93;91.35
73141;SHT31;61339;50.558;4.696;2023-07-29T03:57:46;16.93;91.13
73141;SHT31;61339;50.558;4.696;2023-07-29T04:00:11;16.92;91.19
73141;SHT31;61339;50.558;4.696;2023-07-29T04:02:37;16.93;91.25
73141;SHT31;61339;50.558;4.696;2023-07-29T04:05:03;16.92;91.34
73141;SHT31;61339;50.558;4.696;2023-07-29T04:07:30;16.92;91.39
73141;SHT31;61339;50.558;4.696;2023-07-29T04:09:55;16.92;91.48
73141;SHT31;61339;50.558;4.696;2023-07-29T04:12:22;16.93;91.33
73141;SHT31;61339;50.558;4.696;2023-07-29T04:14:47;17.02;91.16
73141;SHT31;61339;50.558;4.696;2023-07-29T04:17:13;17.02;91.12
73141;SHT31;61339;50.558;4.696;2023-07-29T04:19:38;17.03;91.06
73141;SHT31;61339;50.558;4.696;2023-07-29T04:22:04;17.03;91.00
73141;SHT31;61339;50.558;4.696;2023-07-29T04:24:29;17.05;90.86
73141;SHT31;61339;50.558;4.696;2023-07-29T04:26:54;17.05;90.69
73141;SHT31;61339;50.558;4.696;2023-07-29T04:29:20;17.09;90.60
73141;SHT31;61339;50.558;4.696;2023-07-29T04:31:47;17.08;90.44
73141;SHT31;61339;50.558;4.696;2023-07-29T04:34:13;17.06;90.55
73141;SHT31;61339;50.558;4.696;2023-07-29T04:36:38;17.08;90.50
73141;SHT31;61339;50.558;4.696;2023-07-29T04:39:04;17.09;90.34
73141;SHT31;61339;50.558;4.696;2023-07-29T04:41:29;17.08;90.08
73141;SHT31;61339;50.558;4.696;2023-07-29T04:43:54;17.10;89.98
73141;SHT31;61339;50.558;4.696;2023-07-29T04:46:20;17.10;89.87
73141;SHT31;61339;50.558;4.696;2023-07-29T04:48:45;17.15;89.90
73141;SHT31;61339;50.558;4.696;2023-07-29T04:51:10;17.16;89.72
73141;SHT31;61339;50.558;4.696;2023-07-29T04:53:36;17.15;89.72
73141;SHT31;61339;50.558;4.696;2023-07-29T04:56:03;17.15;89.74
73141;SHT31;61339;50.558;4.696;2023-07-29T04:58:28;17.13;89.55
73141;SHT31;61339;50.558;4.696;2023-07-29T05:00:55;17.08;89.59
73141;SHT31;61339;50.558;4.696;2023-07-29T05:03:20;17.02;89.66
73141;SHT31;61339;50.558;4.696;2023-07-29T05:05:46;17.03;89.48
73141;SHT31;61339;50.558;4.696;2023-07-29T05:08:11;17.02;89.45
73141;SHT31;61339;50.558;4.696;2023-07-29T05:10:37;17.02;89.56
73141;SHT31;61339;50.558;4.696;2023-07-29T05:13:02;16.99;89.58
73141;SHT31;61339;50.558;4.696;2023-07-29T05:15:27;16.99;89.36
73141;SHT31;61339;50.558;4.696;2023-07-29T05:17:53;16.98;89.12
73141;SHT31;61339;50.558;4.696;2023-07-29T05:20:18;17.00;89.20
73141;SHT31;61339;50.558;4.696;2023-07-29T05:22:44;17.03;88.87
73141;SHT31;61339;50.558;4.696;2023-07-29T05:25:09;17.03;88.76
73141;SHT31;61339;50.558;4.696;2023-07-29T05:27:34;17.06;88.89
73141;SHT31;61339;50.558;4.696;2023-07-29T05:30:00;17.05;88.74
73141;SHT31;61339;50.558;4.696;2023-07-29T05:32:25;17.02;88.77
73141;SHT31;61339;50.558;4.696;2023-07-29T05:34:51;16.96;88.95
73141;SHT31;61339;50.558;4.696;2023-07-29T05:37:16;17.00;88.85
73141;SHT31;61339;50.558;4.696;2023-07-29T05:39:42;16.95;89.01
73141;SHT31;61339;50.558;4.696;2023-07-29T05:42:07;17.06;89.14
73141;SHT31;61339;50.558;4.696;2023-07-29T05:44:33;17.39;88.31
73141;SHT31;61339;50.558;4.696;2023-07-29T05:46:58;17.53;87.82
73141;SHT31;61339;50.558;4.696;2023-07-29T05:49:24;17.73;87.08
73141;SHT31;61339;50.558;4.696;2023-07-29T05:51:49;17.95;86.42
73141;SHT31;61339;50.558;4.696;2023-07-29T05:54:18;17.98;86.45
73141;SHT31;61339;50.558;4.696;2023-07-29T05:56:43;18.16;86.14
73141;SHT31;61339;50.558;4.696;2023-07-29T05:59:08;18.56;84.82
73141;SHT31;61339;50.558;4.696;2023-07-29T06:01:34;18.64;84.46
73141;SHT31;61339;50.558;4.696;2023-07-29T06:04:00;18.67;84.30
73141;SHT31;61339;50.558;4.696;2023-07-29T06:06:25;18.66;83.88
73141;SHT31;61339;50.558;4.696;2023-07-29T06:08:51;18.66;83.93
73141;SHT31;61339;50.558;4.696;2023-07-29T06:11:16;18.67;83.18
73141;SHT31;61339;50.558;4.696;2023-07-29T06:13:42;18.77;83.85
73141;SHT31;61339;50.558;4.696;2023-07-29T06:16:07;18.78;83.98
73141;SHT31;61339;50.558;4.696;2023-07-29T06:18:33;18.80;83.80
73141;SHT31;61339;50.558;4.696;2023-07-29T06:20:58;18.83;83.98
73141;SHT31;61339;50.558;4.696;2023-07-29T06:23:23;18.76;83.88
73141;SHT31;61339;50.558;4.696;2023-07-29T06:25:49;18.76;84.12
73141;SHT31;61339;50.558;4.696;2023-07-29T06:28:14;18.80;83.81
73141;SHT31;61339;50.558;4.696;2023-07-29T06:30:40;18.87;83.52
73141;SHT31;61339;50.558;4.696;2023-07-29T06:33:05;18.90;82.87
73141;SHT31;61339;50.558;4.696;2023-07-29T06:35:31;18.94;82.93
73141;SHT31;61339;50.558;4.696;2023-07-29T06:37:56;18.96;82.99
73141;SHT31;61339;50.558;4.696;2023-07-29T06:40:22;18.90;82.95
73141;SHT31;61339;50.558;4.696;2023-07-29T06:42:47;18.86;83.07
73141;SHT31;61339;50.558;4.696;2023-07-29T06:45:13;18.87;83.22
73141;SHT31;61339;50.558;4.696;2023-07-29T06:47:38;18.96;83.15
73141;SHT31;61339;50.558;4.696;2023-07-29T06:50:04;19.06;82.90
73141;SHT31;61339;50.558;4.696;2023-07-29T06:52:30;19.29;82.31
73141;SHT31;61339;50.558;4.696;2023-07-29T06:54:55;19.65;81.01
73141;SHT31;61339;50.558;4.696;2023-07-29T06:57:21;19.73;80.11
73141;SHT31;61339;50.558;4.696;2023-07-29T06:59:46;19.77;80.25
73141;SHT31;61339;50.558;4.696;2023-07-29T07:02:12;19.80;79.30
73141;SHT31;61339;50.558;4.696;2023-07-29T07:04:37;20.51;77.41
73141;SHT31;61339;50.558;4.696;2023-07-29T07:07:03;20.64;77.30
73141;SHT31;61339;50.558;4.696;2023-07-29T07:09:28;20.99;75.10
73141;SHT31;61339;50.558;4.696;2023-07-29T07:11:53;20.69;74.42
73141;SHT31;61339;50.558;4.696;2023-07-29T07:14:19;20.40;74.96
73141;SHT31;61339;50.558;4.696;2023-07-29T07:16:44;20.30;75.80
73141;SHT31;61339;50.558;4.696;2023-07-29T07:19:10;20.48;75.46
73141;SHT31;61339;50.558;4.696;2023-07-29T07:21:36;21.33;73.22
73141;SHT31;61339;50.558;4.696;2023-07-29T07:24:01;22.31;69.09
73141;SHT31;61339;50.558;4.696;2023-07-29T07:26:27;22.56;68.11
73141;SHT31;61339;50.558;4.696;2023-07-29T07:28:52;22.43;68.06
73141;SHT31;61339;50.558;4.696;2023-07-29T07:31:18;23.31;65.20
73141;SHT31;61339;50.558;4.696;2023-07-29T07:33:43;23.45;63.99
73141;SHT31;61339;50.558;4.696;2023-07-29T07:36:09;22.84;65.60
73141;SHT31;61339;50.558;4.696;2023-07-29T07:38:35;22.41;67.29
73141;SHT31;61339;50.558;4.696;2023-07-29T07:41:00;22.15;67.36
73141;SHT31;61339;50.558;4.696;2023-07-29T07:43:25;22.67;66.50
73141;SHT31;61339;50.558;4.696;2023-07-29T07:45:57;23.21;64.60
73141;SHT31;61339;50.558;4.696;2023-07-29T07:48:22;23.66;61.53
73141;SHT31;61339;50.558;4.696;2023-07-29T07:50:48;23.68;60.76
73141;SHT31;61339;50.558;4.696;2023-07-29T07:53:13;23.31;62.36
73141;SHT31;61339;50.558;4.696;2023-07-29T07:55:38;23.21;62.51
73141;SHT31;61339;50.558;4.696;2023-07-29T07:58:04;22.79;63.72
73141;SHT31;61339;50.558;4.696;2023-07-29T08:00:29;22.49;64.82
73141;SHT31;61339;50.558;4.696;2023-07-29T08:02:55;22.38;65.44
73141;SHT31;61339;50.558;4.696;2023-07-29T08:05:20;22.12;66.01
73141;SHT31;61339;50.558;4.696;2023-07-29T08:07:45;22.08;66.41
73141;SHT31;61339;50.558;4.696;2023-07-29T08:10:11;22.04;66.08
73141;SHT31;61339;50.558;4.696;2023-07-29T08:12:36;22.12;65.86
73141;SHT31;61339;50.558;4.696;2023-07-29T08:15:01;22.42;64.93
73141;SHT31;61339;50.558;4.696;2023-07-29T08:17:28;22.55;64.30
73141;SHT31;61339;50.558;4.696;2023-07-29T08:19:53;22.62;63.27
73141;SHT31;61339;50.558;4.696;2023-07-29T08:22:18;22.51;64.08
73141;SHT31;61339;50.558;4.696;2023-07-29T08:24:45;23.04;62.83
73141;SHT31;61339;50.558;4.696;2023-07-29T08:27:10;23.99;60.43
73141;SHT31;61339;50.558;4.696;2023-07-29T08:29:36;25.36;57.62
73141;SHT31;61339;50.558;4.696;2023-07-29T08:32:01;25.69;55.07
73141;SHT31;61339;50.558;4.696;2023-07-29T08:34:27;26.82;52.20
73141;SHT31;61339;50.558;4.696;2023-07-29T08:36:53;26.99;50.92
73141;SHT31;61339;50.558;4.696;2023-07-29T08:39:18;26.55;52.65
73141;SHT31;61339;50.558;4.696;2023-07-29T08:41:55;26.00;53.18
73141;SHT31;61339;50.558;4.696;2023-07-29T08:44:26;25.66;53.65
73141;SHT31;61339;50.558;4.696;2023-07-29T08:46:52;26.14;51.26
73141;SHT31;61339;50.558;4.696;2023-07-29T08:49:19;27.44;48.10
73141;SHT31;61339;50.558;4.696;2023-07-29T08:51:46;28.36;46.98
73141;SHT31;61339;50.558;4.696;2023-07-29T08:54:13;29.00;45.24
73141;SHT31;61339;50.558;4.696;2023-07-29T08:56:40;29.03;45.26
73141;SHT31;61339;50.558;4.696;2023-07-29T08:59:06;29.35;43.86
73141;SHT31;61339;50.558;4.696;2023-07-29T09:01:32;29.08;44.20
73141;SHT31;61339;50.558;4.696;2023-07-29T09:03:57;29.80;43.43
73141;SHT31;61339;50.558;4.696;2023-07-29T09:06:23;29.89;42.93
73141;SHT31;61339;50.558;4.696;2023-07-29T09:08:51;29.15;43.41
73141;SHT31;61339;50.558;4.696;2023-07-29T09:11:18;28.09;45.96
73141;SHT31;61339;50.558;4.696;2023-07-29T09:13:44;27.57;48.24
73141;SHT31;61339;50.558;4.696;2023-07-29T09:16:09;27.02;48.71
73141;SHT31;61339;50.558;4.696;2023-07-29T09:18:35;26.59;49.87
73141;SHT31;61339;50.558;4.696;2023-07-29T09:21:01;26.28;50.72
73141;SHT31;61339;50.558;4.696;2023-07-29T09:23:27;25.98;51.31
73141;SHT31;61339;50.558;4.696;2023-07-29T09:26:04;25.84;51.84
73141;SHT31;61339;50.558;4.696;2023-07-29T09:28:34;25.51;52.93
73141;SHT31;61339;50.558;4.696;2023-07-29T09:31:00;25.08;53.85
73141;SHT31;61339;50.558;4.696;2023-07-29T09:33:26;25.33;54.22
73141;SHT31;61339;50.558;4.696;2023-07-29T09:35:52;26.49;52.28
73141;SHT31;61339;50.558;4.696;2023-07-29T09:38:17;27.38;50.14
73141;SHT31;61339;50.558;4.696;2023-07-29T09:40:43;29.07;45.91
73141;SHT31;61339;50.558;4.696;2023-07-29T09:43:10;29.77;44.10
73141;SHT31;61339;50.558;4.696;2023-07-29T09:45:37;28.90;45.85
73141;SHT31;61339;50.558;4.696;2023-07-29T09:48:03;27.85;47.26
73141;SHT31;61339;50.558;4.696;2023-07-29T09:50:30;27.27;49.80
73141;SHT31;61339;50.558;4.696;2023-07-29T09:52:56;26.63;51.28
73141;SHT31;61339;50.558;4.696;2023-07-29T09:55:25;25.97;52.84
73141;SHT31;61339;50.558;4.696;2023-07-29T09:57:59;26.83;51.44
73141;SHT31;61339;50.558;4.696;2023-07-29T10:00:32;27.58;49.24
73141;SHT31;61339;50.558;4.696;2023-07-29T10:02:58;27.23;50.00
73141;SHT31;61339;50.558;4.696;2023-07-29T10:05:27;27.03;50.40
73141;SHT31;61339;50.558;4.696;2023-07-29T10:07:54;27.03;50.11
73141;SHT31;61339;50.558;4.696;2023-07-29T10:10:20;28.15;47.51
73141;SHT31;61339;50.558;4.696;2023-07-29T10:12:46;28.40;47.29
73141;SHT31;61339;50.558;4.696;2023-07-29T10:15:12;29.00;46.73
73141;SHT31;61339;50.558;4.696;2023-07-29T10:17:38;28.78;46.73
73141;SHT31;61339;50.558;4.696;2023-07-29T10:20:06;27.94;47.80
73141;SHT31;61339;50.558;4.696;2023-07-29T10:22:37;27.26;49.49
73141;SHT31;61339;50.558;4.696;2023-07-29T10:25:04;26.49;51.25
73141;SHT31;61339;50.558;4.696;2023-07-29T10:27:47;25.62;56.10
73141;SHT31;61339;50.558;4.696;2023-07-29T10:30:13;25.11;59.51
73141;SHT31;61339;50.558;4.696;2023-07-29T10:32:42;24.65;61.39
73141;SHT31;61339;50.558;4.696;2023-07-29T10:35:14;24.31;63.55
73141;SHT31;61339;50.558;4.696;2023-07-29T10:37:39;24.13;64.34
73141;SHT31;61339;50.558;4.696;2023-07-29T10:40:08;23.96;65.06
73141;SHT31;61339;50.558;4.696;2023-07-29T10:42:33;23.63;77.81
73141;SHT31;61339;50.558;4.696;2023-07-29T10:45:00;23.25;83.85
73141;SHT31;61339;50.558;4.696;2023-07-29T10:47:27;22.89;87.30
73141;SHT31;61339;50.558;4.696;2023-07-29T10:49:56;22.64;85.22
73141;SHT31;61339;50.558;4.696;2023-07-29T10:55:00;22.38;88.47
73141;SHT31;61339;50.558;4.696;2023-07-29T10:57:35;22.49;85.57
73141;SHT31;61339;50.558;4.696;2023-07-29T11:00:01;22.42;85.05
73141;SHT31;61339;50.558;4.696;2023-07-29T11:02:37;22.19;82.34
73141;SHT31;61339;50.558;4.696;2023-07-29T11:05:16;22.06;82.55
73141;SHT31;61339;50.558;4.696;2023-07-29T11:07:47;22.16;82.70
73141;SHT31;61339;50.558;4.696;2023-07-29T11:10:14;22.08;79.07
73141;SHT31;61339;50.558;4.696;2023-07-29T11:12:41;21.75;83.78
73141;SHT31;61339;50.558;4.696;2023-07-29T11:17:44;23.32;83.43
73141;SHT31;61339;50.558;4.696;2023-07-29T11:20:11;23.98;78.75
73141;SHT31;61339;50.558;4.696;2023-07-29T11:22:37;24.29;76.98
73141;SHT31;61339;50.558;4.696;2023-07-29T11:25:03;24.39;76.21
73141;SHT31;61339;50.558;4.696;2023-07-29T11:27:30;26.28;71.42
73141;SHT31;61339;50.558;4.696;2023-07-29T11:30:04;27.08;69.88
73141;SHT31;61339;50.558;4.696;2023-07-29T11:32:31;26.95;71.26
73141;SHT31;61339;50.558;4.696;2023-07-29T11:35:00;26.25;70.48
73141;SHT31;61339;50.558;4.696;2023-07-29T11:37:26;25.66;68.23
73141;SHT31;61339;50.558;4.696;2023-07-29T11:39:51;24.95;69.89
73141;SHT31;61339;50.558;4.696;2023-07-29T11:42:16;24.50;72.49
73141;SHT31;61339;50.558;4.696;2023-07-29T11:44:42;24.03;73.06
73141;SHT31;61339;50.558;4.696;2023-07-29T11:47:09;23.85;72.88
73141;SHT31;61339;50.558;4.696;2023-07-29T11:49:35;23.63;74.22
73141;SHT31;61339;50.558;4.696;2023-07-29T11:52:02;23.47;73.21
73141;SHT31;61339;50.558;4.696;2023-07-29T11:54:28;24.80;70.23
73141;SHT31;61339;50.558;4.696;2023-07-29T11:56:55;25.22;69.08
73141;SHT31;61339;50.558;4.696;2023-07-29T11:59:20;24.85;68.68
73141;SHT31;61339;50.558;4.696;2023-07-29T12:01:46;24.24;70.43
73141;SHT31;61339;50.558;4.696;2023-07-29T12:04:12;23.83;72.39
73141;SHT31;61339;50.558;4.696;2023-07-29T12:06:38;23.45;73.88
73141;SHT31;61339;50.558;4.696;2023-07-29T12:09:04;23.15;73.75
73141;SHT31;61339;50.558;4.696;2023-07-29T12:11:30;23.68;71.86
73141;SHT31;61339;50.558;4.696;2023-07-29T12:13:55;26.80;64.87
73141;SHT31;61339;50.558;4.696;2023-07-29T12:16:21;26.87;64.15
73141;SHT31;61339;50.558;4.696;2023-07-29T12:18:46;28.80;57.99
73141;SHT31;61339;50.558;4.696;2023-07-29T12:21:14;30.75;52.04
73141;SHT31;61339;50.558;4.696;2023-07-29T12:23:40;30.37;54.22
73141;SHT31;61339;50.558;4.696;2023-07-29T12:26:05;29.72;53.40
73141;SHT31;61339;50.558;4.696;2023-07-29T12:28:31;29.28;52.89
73141;SHT31;61339;50.558;4.696;2023-07-29T12:30:57;28.25;56.04
73141;SHT31;61339;50.558;4.696;2023-07-29T12:33:30;29.39;54.65
73141;SHT31;61339;50.558;4.696;2023-07-29T12:35:55;31.77;48.64
73141;SHT31;61339;50.558;4.696;2023-07-29T12:38:21;30.76;50.53
73141;SHT31;61339;50.558;4.696;2023-07-29T12:40:47;29.35;53.96
73141;SHT31;61339;50.558;4.696;2023-07-29T12:43:12;28.23;57.45
73141;SHT31;61339;50.558;4.696;2023-07-29T12:45:37;27.55;59.84
73141;SHT31;61339;50.558;4.696;2023-07-29T12:48:05;27.78;59.49
73141;SHT31;61339;50.558;4.696;2023-07-29T12:50:30;28.67;57.49
73141;SHT31;61339;50.558;4.696;2023-07-29T12:52:57;29.65;57.15
73141;SHT31;61339;50.558;4.696;2023-07-29T12:55:22;30.14;55.44
73141;SHT31;61339;50.558;4.696;2023-07-29T12:57:47;30.18;55.29
73141;SHT31;61339;50.558;4.696;2023-07-29T13:00:13;28.88;55.63
73141;SHT31;61339;50.558;4.696;2023-07-29T13:02:38;28.93;54.17
73141;SHT31;61339;50.558;4.696;2023-07-29T13:05:04;30.52;48.81
73141;SHT31;61339;50.558;4.696;2023-07-29T13:07:30;31.04;48.47
73141;SHT31;61339;50.558;4.696;2023-07-29T13:09:55;29.73;51.55
73141;SHT31;61339;50.558;4.696;2023-07-29T13:12:21;29.34;50.92
73141;SHT31;61339;50.558;4.696;2023-07-29T13:14:46;28.42;53.23
73141;SHT31;61339;50.558;4.696;2023-07-29T13:17:12;27.48;53.59
73141;SHT31;61339;50.558;4.696;2023-07-29T13:19:37;26.79;54.63
73141;SHT31;61339;50.558;4.696;2023-07-29T13:22:02;26.35;55.97
73141;SHT31;61339;50.558;4.696;2023-07-29T13:24:28;26.20;56.41
73141;SHT31;61339;50.558;4.696;2023-07-29T13:26:53;25.96;58.33
73141;SHT31;61339;50.558;4.696;2023-07-29T13:29:19;25.63;60.18
73141;SHT31;61339;50.558;4.696;2023-07-29T13:31:44;25.32;61.77
73141;SHT31;61339;50.558;4.696;2023-07-29T13:34:10;24.98;63.01
73141;SHT31;61339;50.558;4.696;2023-07-29T13:36:36;24.75;62.91
73141;SHT31;61339;50.558;4.696;2023-07-29T13:39:02;24.58;63.15
73141;SHT31;61339;50.558;4.696;2023-07-29T13:41:28;24.63;65.20
73141;SHT31;61339;50.558;4.696;2023-07-29T13:43:53;24.94;65.01
73141;SHT31;61339;50.558;4.696;2023-07-29T13:46:19;25.46;66.72
73141;SHT31;61339;50.558;4.696;2023-07-29T13:48:46;25.66;67.75
73141;SHT31;61339;50.558;4.696;2023-07-29T13:51:12;25.49;68.72
73141;SHT31;61339;50.558;4.696;2023-07-29T13:53:37;25.29;69.69
73141;SHT31;61339;50.558;4.696;2023-07-29T13:56:04;25.19;71.35
73141;SHT31;61339;50.558;4.696;2023-07-29T13:58:30;25.14;68.87
73141;SHT31;61339;50.558;4.696;2023-07-29T14:00:55;24.95;65.78
73141;SHT31;61339;50.558;4.696;2023-07-29T14:03:20;24.95;64.42
73141;SHT31;61339;50.558;4.696;2023-07-29T14:05:46;25.12;64.13
73141;SHT31;61339;50.558;4.696;2023-07-29T14:08:12;25.40;62.60
73141;SHT31;61339;50.558;4.696;2023-07-29T14:10:37;25.66;60.38
73141;SHT31;61339;50.558;4.696;2023-07-29T14:13:03;26.02;61.46
73141;SHT31;61339;50.558;4.696;2023-07-29T14:15:28;26.17;59.54
73141;SHT31;61339;50.558;4.696;2023-07-29T14:17:54;26.20;58.56
73141;SHT31;61339;50.558;4.696;2023-07-29T14:20:19;26.22;59.18
73141;SHT31;61339;50.558;4.696;2023-07-29T14:22:45;26.24;57.72
73141;SHT31;61339;50.558;4.696;2023-07-29T14:25:10;26.14;57.02
73141;SHT31;61339;50.558;4.696;2023-07-29T14:27:36;25.90;57.13
73141;SHT31;61339;50.558;4.696;2023-07-29T14:30:02;25.74;57.41
73141;SHT31;61339;50.558;4.696;2023-07-29T14:32:27;25.86;57.52
73141;SHT31;61339;50.558;4.696;2023-07-29T14:34:53;25.97;57.47
73141;SHT31;61339;50.558;4.696;2023-07-29T14:37:18;26.02;57.00
73141;SHT31;61339;50.558;4.696;2023-07-29T14:39:44;25.94;56.03
73141;SHT31;61339;50.558;4.696;2023-07-29T14:42:09;25.90;57.74
73141;SHT31;61339;50.558;4.696;2023-07-29T14:44:35;25.71;55.99
73141;SHT31;61339;50.558;4.696;2023-07-29T14:47:00;25.70;55.27
73141;SHT31;61339;50.558;4.696;2023-07-29T14:49:25;25.80;55.80
73141;SHT31;61339;50.558;4.696;2023-07-29T14:51:51;25.73;55.78
73141;SHT31;61339;50.558;4.696;2023-07-29T14:54:16;25.71;56.30
73141;SHT31;61339;50.558;4.696;2023-07-29T14:56:42;25.67;56.37
73141;SHT31;61339;50.558;4.696;2023-07-29T14:59:07;25.70;56.33
73141;SHT31;61339;50.558;4.696;2023-07-29T15:01:32;25.57;56.75
73141;SHT31;61339;50.558;4.696;2023-07-29T15:03:58;25.39;56.08
73141;SHT31;61339;50.558;4.696;2023-07-29T15:06:23;25.23;56.54
73141;SHT31;61339;50.558;4.696;2023-07-29T15:08:49;25.08;57.04
73141;SHT31;61339;50.558;4.696;2023-07-29T15:11:14;25.01;57.01
73141;SHT31;61339;50.558;4.696;2023-07-29T15:13:39;24.95;58.02
73141;SHT31;61339;50.558;4.696;2023-07-29T15:16:05;24.91;58.57
73141;SHT31;61339;50.558;4.696;2023-07-29T15:18:30;24.81;59.77
73141;SHT31;61339;50.558;4.696;2023-07-29T15:20:58;24.77;61.82
73141;SHT31;61339;50.558;4.696;2023-07-29T15:23:25;24.61;64.71
73141;SHT31;61339;50.558;4.696;2023-07-29T15:25:50;24.37;67.03
73141;SHT31;61339;50.558;4.696;2023-07-29T15:28:16;24.24;67.70
73141;SHT31;61339;50.558;4.696;2023-07-29T15:30:41;24.21;68.42
73141;SHT31;61339;50.558;4.696;2023-07-29T15:33:07;24.16;69.82
73141;SHT31;61339;50.558;4.696;2023-07-29T15:35:37;24.13;75.19